Radium, Texas
Current Conditions -  °F | °C
As of 4:58 AM on Wednesday 26 Nov 2014 (Local Time) from KDYS Reporting Station
Clear Clear  
Wind Chill: 43°   Ceiling: Unl
Heat Index: 47°   Visibility: 10mi
Dew Point: 19°   Wind: 8mph
Humidity: 33%   Direction: 240°WSW
Pressure: 30.07"   Gusts: NA
Location:  32.755°N, 99.9177°W
Report Text: KDYS 261058Z AUTO 24007KT 10SM CLR 09/M07 A3007 RMK AO2 SLP170 T00851072 $
Loading
Personal Weather Stations






























Interactive Weather Map New forecast layout! Learn more

10-Day Weather Forecast

Advertisements
Track Severe Weather on mobile